Avondale, Alabama
Current Conditions -  °F | °C
As of 10:53 PM on Friday 19 Dec 2014 (Local Time) from KBHM Reporting Station
Light Rain Light Rain  
Wind Chill: 42°   Ceiling: 8000
Heat Index: 42°   Visibility: 10mi
Dew Point: 38°   Wind: 0mph
Humidity: 85%   Direction: NA
Pressure: 30.18"   Gusts: NA
Location:  33.5222°N, 86.7699°W
Report Text: KBHM 200453Z 00000KT 10SM -RA OVC080 06/03 A3018 RMK AO2 SLP219 P0002 T00560033
Loading
Personal Weather Stations






























Interactive Weather Map New forecast layout! Learn more

10-Day Weather Forecast

Advertisements
Track Severe Weather on mobile